Farmersville's Hourly Summary for Sunday, May 13, 2018
Hour Temp
(f)
RH
(%)
Solar Rad.
(MJ/m2)
Rainfall
(in)
Wind
(mph)
5/13/2018 12:00 AM 73 74 0 0 1.83
5/13/2018 1:00 AM 73 77 0 0 2.31
5/13/2018 2:00 AM 74 77 0 0 3.07
5/13/2018 3:00 AM 73 78 0 0 3.31
5/13/2018 4:00 AM 72 82 0 0 3.17
5/13/2018 5:00 AM 71 85 0 0 2.72
5/13/2018 6:00 AM 70 100 0 0 2.28
5/13/2018 7:00 AM 69 99 0.03 0 2
5/13/2018 8:00 AM 70 100 0.24 0 2.56
5/13/2018 9:00 AM 72 100 0.55 0 4.24
5/13/2018 10:00 AM 74 82 0.81 0 4.84
5/13/2018 11:00 AM 76 70 1.27 0 4.81
5/13/2018 12:00 PM 79 62 1.92 0 4.87
5/13/2018 1:00 PM 80 61 1.88 0 5.64
5/13/2018 2:00 PM 83 58 2.51 0 5.06
5/13/2018 3:00 PM 84 52 2.47 0 5.47
5/13/2018 4:00 PM 85 53 2.23 0 5.35
5/13/2018 5:00 PM 85 52 1.86 0 5.17
5/13/2018 6:00 PM 85 52 1.37 0 4.56
5/13/2018 7:00 PM 85 52 0.98 0 3.79
5/13/2018 8:00 PM 83 55 0.3 0 2.31
5/13/2018 9:00 PM 78 61 0 0 0.3
5/13/2018 10:00 PM 76 69 0 0 0.73
5/13/2018 11:00 PM 75 72 0 0 0.78
Data Summary 76 71 18.42 0.00 3.38